Hlavní strana
METAR-TAF:

METAR-TAF

Letiště :

Letiště Drážďany

Drážďany, Německo

zeměpisná šířka: 51-08N, zeměpisná délka: 013-45E, výška: 230 m

Aktuální stav počasí

Zpráva byla vytvořena před 11 minutami, v 17:50 UTC
Západojihozápadní vítr 5 kt
Teplota -3°C
Vlhkost vzduchu 80%
Tlak 1019 hPa
Viditelnost 10 km a více
Žádná oblačnost pod 1500 m, nevyskytují se cumulonimby.

METAR: EDDC 181750Z 24005KT CAVOK M03/M06 Q1019 R04/CLRD// NOSIG

Čas: 19:01 (18:01 UTC)

Předpověď počasí

Zpráva byla vytvořena před 1 hodinou a 1 minutami, v 17:00 UTC
Předpověď platná od 18 v 18 UTC do 19 v 18 UTC
Západojihozápadní vítr 5 kt
Viditelnost 10 km a více
Žádná oblačnost pod 1500 m, nevyskytují se cumulonimby.
Změna
od 19 v 00 UTC do 19 v 03 UTC
vítr z různých směrů 3 kt
Změna
od 19 v 10 UTC do 19 v 13 UTC
Jihojihovýchodní vítr 5 kt

TAF: EDDC 181700Z 1818/1918 25005KT CAVOK BECMG 1900/1903 VRB03KT BECMG 1910/1913 15005KT

Stav a předpovědi počasí z více než 4 000 letišť (zprávy METAR a TAF).

Červené a žluté tečky na mapě představují dostupné meteorologické stanice.

Když kurzor umístíte na tečku, zobrazí se název stanice.

Pak kliknutím zobrazíte stav a předpověď počasí.

Chcete-li změnit mapu, kliknutím na zelené tlačítko se znaménkem +mapu přiblížíte, kliknutím na zelené tlačítko se znaménkem – mapu oddálíte a kliknutím na zelené šipky přejdete na sousední mapy.


METAR-TAF: